Time;durP1;ratioP1;P1;durP2;ratioP2;P2;SDS_P1;SDS_P2;PMS_P1;PMS_P2;Temp;Humidity;BMP_temperature;BMP_pressure;BME280_temperature;BME280_humidity;BME280_pressure;Samples;Min_cycle;Max_cycle;Signal;HPM_P1;HPM_P2
2020/12/15 00:00:39;;;;;;;19.00;12.77;;;8.10;63.40;;;;;;5052763;28;20021;-77
2020/12/15 00:03:05;;;;;;;19.52;12.07;;;8.20;63.50;;;;;;5052598;28;20036;-75
2020/12/15 00:05:31;;;;;;;21.70;12.52;;;8.20;63.30;;;;;;5051461;28;20039;-75
2020/12/15 00:07:56;;;;;;;17.58;11.90;;;8.30;63.40;;;;;;5055033;28;20025;-76
2020/12/15 00:10:23;;;;;;;21.58;13.02;;;8.30;63.00;;;;;;5057127;28;20031;-75
2020/12/15 00:12:49;;;;;;;26.92;12.15;;;8.30;62.80;;;;;;5056413;28;20032;-74
2020/12/15 00:15:15;;;;;;;19.45;11.77;;;8.40;62.70;;;;;;5057039;28;20429;-76
2020/12/15 00:17:40;;;;;;;18.05;11.68;;;8.40;62.60;;;;;;5056797;28;20021;-75
2020/12/15 00:20:10;;;;;;;14.57;10.30;;;8.50;62.50;;;;;;5051925;28;20091;-76
2020/12/15 00:22:37;;;;;;;20.58;12.05;;;8.50;62.40;;;;;;5049141;28;20029;-77
2020/12/15 00:25:04;;;;;;;18.75;11.95;;;8.50;62.30;;;;;;5056359;28;20564;-77
2020/12/15 00:27:30;;;;;;;20.30;12.40;;;8.50;62.20;;;;;;5056205;28;20067;-76
2020/12/15 00:29:56;;;;;;;19.08;11.80;;;8.60;62.20;;;;;;5056303;28;20025;-75
2020/12/15 00:32:21;;;;;;;18.83;11.48;;;8.60;62.10;;;;;;5056491;28;20071;-77
2020/12/15 00:34:47;;;;;;;18.98;11.52;;;8.70;62.10;;;;;;5056567;28;20466;-76
2020/12/15 00:37:13;;;;;;;18.20;11.82;;;8.70;61.90;;;;;;5044407;28;20029;-74
2020/12/15 00:39:38;;;;;;;18.20;11.38;;;8.70;61.80;;;;;;5050821;28;20029;-76
2020/12/15 00:42:05;;;;;;;15.02;10.10;;;8.70;61.80;;;;;;5055974;28;20033;-73
2020/12/15 00:44:33;;;;;;;18.48;11.77;;;8.70;61.70;;;;;;5056192;28;20051;-76
2020/12/15 00:46:59;;;;;;;23.92;10.90;;;8.70;61.60;;;;;;5054896;28;20037;-77
2020/12/15 00:49:25;;;;;;;22.42;12.15;;;8.80;61.50;;;;;;5056142;28;20036;-75
2020/12/15 00:51:51;;;;;;;18.65;11.80;;;8.80;61.50;;;;;;5054453;28;20532;-76
2020/12/15 00:54:16;;;;;;;19.88;11.82;;;8.80;61.40;;;;;;5055796;28;20035;-75
2020/12/15 00:56:42;;;;;;;21.25;13.65;;;8.80;61.40;;;;;;5045975;28;20021;-76
2020/12/15 00:59:08;;;;;;;26.52;15.45;;;8.80;61.20;;;;;;5047808;28;20055;-75
2020/12/15 01:01:34;;;;;;;28.00;14.77;;;8.80;60.90;;;;;;5054608;28;20120;-74
2020/12/15 01:04:00;;;;;;;22.77;13.27;;;8.80;60.70;;;;;;5055827;28;20028;-74
2020/12/15 01:06:26;;;;;;;22.23;14.40;;;8.70;60.70;;;;;;5054871;28;20025;-75
2020/12/15 01:08:52;;;;;;;24.30;14.82;;;8.80;60.70;;;;;;5055536;28;20078;-74
2020/12/15 01:11:17;;;;;;;24.25;13.32;;;8.70;61.40;;;;;;5062653;28;20467;-74
2020/12/15 01:13:43;;;;;;;31.83;14.90;;;8.70;60.60;;;;;;5071260;28;20040;-77
2020/12/15 01:16:09;;;;;;;24.85;14.95;;;8.70;60.60;;;;;;5063085;28;20056;-77
2020/12/15 01:18:35;;;;;;;25.10;15.38;;;8.70;60.50;;;;;;5064926;28;20086;-74
2020/12/15 01:21:02;;;;;;;25.60;15.27;;;8.70;60.40;;;;;;5055270;28;20107;-74
2020/12/15 01:23:29;;;;;;;23.80;14.23;;;8.70;60.40;;;;;;5055849;28;20420;-74
2020/12/15 01:25:55;;;;;;;21.90;13.23;;;8.70;60.40;;;;;;5055613;28;20076;-77
2020/12/15 01:28:20;;;;;;;21.88;14.05;;;8.70;60.50;;;;;;5055609;28;20060;-76
2020/12/15 01:30:46;;;;;;;22.98;14.45;;;8.60;60.50;;;;;;5055280;28;20040;-74
2020/12/15 01:33:12;;;;;;;24.83;14.52;;;8.70;60.50;;;;;;5055392;28;20033;-77
2020/12/15 01:35:37;;;;;;;26.60;16.20;;;8.60;60.30;;;;;;5055174;28;20048;-74
2020/12/15 01:38:03;;;;;;;24.30;14.52;;;8.60;60.40;;;;;;5055388;28;20406;-74
2020/12/15 01:40:29;;;;;;;24.30;14.93;;;8.60;60.40;;;;;;5055600;28;20110;-74
2020/12/15 01:42:55;;;;;;;23.52;13.90;;;8.60;60.50;;;;;;5055231;28;20025;-76
2020/12/15 01:45:20;;;;;;;18.92;12.13;;;8.60;60.60;;;;;;5054213;28;20068;-76
2020/12/15 01:47:46;;;;;;;21.42;13.15;;;8.60;60.50;;;;;;5055003;28;20106;-76
2020/12/15 01:50:12;;;;;;;20.90;13.30;;;8.60;60.50;;;;;;5055207;28;20032;-74
2020/12/15 01:52:38;;;;;;;23.10;13.98;;;8.70;60.50;;;;;;5055041;28;20385;-73
2020/12/15 01:55:04;;;;;;;21.08;12.15;;;8.70;60.50;;;;;;5063519;28;20032;-75
2020/12/15 01:57:31;;;;;;;17.67;10.98;;;8.70;60.50;;;;;;5053236;28;20040;-74
2020/12/15 01:59:56;;;;;;;19.58;12.38;;;8.70;60.40;;;;;;5061994;28;20020;-74
2020/12/15 02:02:22;;;;;;;20.05;11.40;;;8.70;60.20;;;;;;5048206;28;20036;-77
2020/12/15 02:04:49;;;;;;;16.90;11.07;;;8.70;60.10;;;;;;5049975;28;20031;-76
2020/12/15 02:07:17;;;;;;;17.23;10.85;;;8.70;60.10;;;;;;5040105;28;20025;-78
2020/12/15 02:09:43;;;;;;;15.80;10.38;;;8.60;59.90;;;;;;5053098;28;20441;-77
2020/12/15 02:12:10;;;;;;;23.55;14.88;;;8.60;60.00;;;;;;5053618;28;20029;-76
2020/12/15 02:14:35;;;;;;;22.85;12.80;;;8.60;60.10;;;;;;5053996;28;20035;-74
2020/12/15 02:17:03;;;;;;;22.13;12.48;;;8.60;60.20;;;;;;5038887;28;20112;-74
2020/12/15 02:19:29;;;;;;;35.90;17.88;;;8.50;60.20;;;;;;5054461;28;20080;-75
2020/12/15 02:22:00;;;;;;;22.27;12.98;;;8.50;60.20;;;;;;5054689;28;20032;-75
2020/12/15 02:24:26;;;;;;;17.92;11.02;;;8.50;60.20;;;;;;5054521;28;20151;-77
2020/12/15 02:26:52;;;;;;;14.85;9.23;;;8.50;60.20;;;;;;5038176;28;20033;-74
2020/12/15 02:29:18;;;;;;;12.95;8.52;;;8.50;60.20;;;;;;5056813;28;20114;-74
2020/12/15 02:31:45;;;;;;;12.88;7.82;;;8.50;60.00;;;;;;5053458;28;20458;-73
2020/12/15 02:34:11;;;;;;;9.82;7.00;;;8.40;59.90;;;;;;5053692;28;20021;-76
2020/12/15 02:36:37;;;;;;;11.65;7.45;;;8.40;59.80;;;;;;5037008;28;20032;-75
2020/12/15 02:39:13;;;;;;;10.35;6.78;;;8.40;59.70;;;;;;5053275;28;20021;-78
2020/12/15 02:41:40;;;;;;;9.82;6.63;;;8.30;59.70;;;;;;5053427;28;20025;-74
2020/12/15 02:44:07;;;;;;;13.30;8.65;;;8.30;59.80;;;;;;5039926;28;20430;-73
2020/12/15 02:46:33;;;;;;;14.57;8.93;;;8.30;59.80;;;;;;5051482;28;20070;-76
2020/12/15 02:49:00;;;;;;;12.30;8.00;;;8.30;59.90;;;;;;5051729;28;20393;-75
2020/12/15 02:51:26;;;;;;;13.65;8.45;;;8.30;59.90;;;;;;5053343;28;20094;-75
2020/12/15 02:53:53;;;;;;;11.82;7.80;;;8.20;60.00;;;;;;5041554;28;20031;-74
2020/12/15 02:56:23;;;;;;;12.18;7.55;;;8.20;60.00;;;;;;5048486;28;20025;-75
2020/12/15 02:58:50;;;;;;;11.80;7.82;;;8.20;60.10;;;;;;5039236;28;20041;-75
2020/12/15 03:01:16;;;;;;;12.25;7.68;;;8.20;60.80;;;;;;5053017;28;20359;-75
2020/12/15 03:03:42;;;;;;;11.80;7.82;;;8.30;60.10;;;;;;5051537;28;20032;-78
2020/12/15 03:06:08;;;;;;;11.13;7.30;;;8.30;60.10;;;;;;5053026;28;20024;-77
2020/12/15 03:08:35;;;;;;;12.40;8.07;;;8.20;60.00;;;;;;5051149;28;20025;-75
2020/12/15 03:11:01;;;;;;;14.52;8.80;;;8.20;60.00;;;;;;5052851;28;20024;-78
2020/12/15 03:13:27;;;;;;;16.25;9.55;;;8.30;60.10;;;;;;5044657;28;20026;-79
2020/12/15 03:15:53;;;;;;;15.18;8.57;;;8.30;60.00;;;;;;5044625;28;20033;-74
2020/12/15 03:18:19;;;;;;;14.18;9.30;;;8.20;60.00;;;;;;5040343;28;20053;-77
2020/12/15 03:20:48;;;;;;;13.45;8.77;;;8.20;60.00;;;;;;5052347;28;20090;-74
2020/12/15 03:23:18;;;;;;;17.17;10.85;;;8.20;60.00;;;;;;5050200;28;20104;-74
2020/12/15 03:25:44;;;;;;;15.15;9.73;;;8.20;60.20;;;;;;5051660;28;20053;-74
2020/12/15 03:28:10;;;;;;;15.98;9.65;;;8.20;60.20;;;;;;5052876;28;20032;-74
2020/12/15 03:30:36;;;;;;;18.10;10.45;;;8.30;60.30;;;;;;5052237;28;20060;-77
2020/12/15 03:33:03;;;;;;;18.00;10.25;;;8.30;60.30;;;;;;5051560;28;20052;-74
2020/12/15 03:35:29;;;;;;;17.80;10.30;;;8.30;60.20;;;;;;5051454;28;20033;-79
2020/12/15 03:37:55;;;;;;;17.33;10.93;;;8.30;60.10;;;;;;5052766;28;20025;-74
2020/12/15 03:40:22;;;;;;;19.33;10.55;;;8.30;60.00;;;;;;5052427;28;20051;-78
2020/12/15 03:42:49;;;;;;;18.48;11.45;;;8.30;60.10;;;;;;5051744;28;20100;-75
2020/12/15 03:45:15;;;;;;;16.25;10.18;;;8.30;60.10;;;;;;5052516;28;20031;-75
2020/12/15 03:47:41;;;;;;;15.90;10.50;;;8.30;60.10;;;;;;5052700;28;20057;-77
2020/12/15 03:50:09;;;;;;;17.95;11.13;;;8.40;60.00;;;;;;5051008;28;20079;-76
2020/12/15 03:52:38;;;;;;;16.95;10.75;;;8.40;60.00;;;;;;5052629;28;20025;-74
2020/12/15 03:55:05;;;;;;;18.70;11.40;;;8.40;59.90;;;;;;5052245;28;20033;-78
2020/12/15 03:57:31;;;;;;;17.75;10.68;;;8.30;59.80;;;;;;5052546;28;20021;-75
2020/12/15 03:59:56;;;;;;;18.25;11.48;;;8.30;59.80;;;;;;5052837;28;20029;-75
2020/12/15 04:02:22;;;;;;;17.00;10.63;;;8.40;59.90;;;;;;5045862;28;20017;-78
2020/12/15 04:04:49;;;;;;;16.52;9.55;;;8.30;59.90;;;;;;5047933;28;20044;-76
2020/12/15 04:07:14;;;;;;;16.67;9.25;;;8.40;60.00;;;;;;5049845;28;20033;-74
2020/12/15 04:09:40;;;;;;;15.35;9.73;;;8.40;60.00;;;;;;5052161;28;20029;-77
2020/12/15 04:12:06;;;;;;;17.20;10.07;;;8.40;59.90;;;;;;5052387;28;20478;-77
2020/12/15 04:14:32;;;;;;;15.30;9.35;;;8.50;59.90;;;;;;5052243;28;20036;-75
2020/12/15 04:16:58;;;;;;;16.42;10.02;;;8.40;59.80;;;;;;5052191;28;20500;-74
2020/12/15 04:19:23;;;;;;;14.90;9.70;;;8.40;59.70;;;;;;5051954;28;20382;-76
2020/12/15 04:21:49;;;;;;;17.15;10.52;;;8.40;59.70;;;;;;5052379;28;20021;-77
2020/12/15 04:24:15;;;;;;;15.13;9.60;;;8.40;59.70;;;;;;5051927;28;20494;-74
2020/12/15 04:26:40;;;;;;;13.55;8.90;;;8.40;59.70;;;;;;5051001;28;20029;-76
2020/12/15 04:29:06;;;;;;;16.75;10.02;;;8.50;59.80;;;;;;5047412;28;20064;-74
2020/12/15 04:31:32;;;;;;;18.38;10.85;;;8.40;59.70;;;;;;5050516;28;20025;-73
2020/12/15 04:33:58;;;;;;;17.77;11.30;;;8.50;59.70;;;;;;5049739;28;20103;-74
2020/12/15 04:36:24;;;;;;;15.15;9.68;;;8.50;59.70;;;;;;5051557;28;20447;-74
2020/12/15 04:38:50;;;;;;;12.55;8.82;;;8.50;59.70;;;;;;5050327;28;20033;-76
2020/12/15 04:41:16;;;;;;;17.17;11.10;;;8.50;59.80;;;;;;5050416;28;20078;-77
2020/12/15 04:43:43;;;;;;;17.45;10.50;;;8.50;59.70;;;;;;5051874;28;20079;-77
2020/12/15 04:46:14;;;;;;;15.60;10.02;;;8.60;59.70;;;;;;5052143;28;20116;-78
2020/12/15 04:48:43;;;;;;;16.50;9.23;;;8.60;60.20;;;;;;5052153;28;20107;-75
2020/12/15 04:51:12;;;;;;;19.52;11.65;;;8.60;59.60;;;;;;5052089;28;20087;-76
2020/12/15 04:53:44;;;;;;;23.65;14.82;;;8.60;59.50;;;;;;5054036;28;20029;-73
2020/12/15 04:56:28;;;;;;;27.60;15.70;;;8.60;59.40;;;;;;5055685;28;20025;-78
2020/12/15 04:58:57;;;;;;;19.23;11.23;;;8.60;59.20;;;;;;5055768;28;20021;-75
2020/12/15 05:01:24;;;;;;;18.95;11.48;;;8.60;59.30;;;;;;5054075;28;20029;-73
2020/12/15 05:03:54;;;;;;;21.75;12.25;;;8.60;59.40;;;;;;5036941;28;20017;-73
2020/12/15 05:06:26;;;;;;;27.48;15.32;;;8.60;59.30;;;;;;5035538;28;20053;-75
2020/12/15 05:08:53;;;;;;;23.92;12.55;;;8.60;59.00;;;;;;5051277;28;20031;-74
2020/12/15 05:11:20;;;;;;;23.40;13.07;;;8.60;58.90;;;;;;5055146;28;20408;-74
2020/12/15 05:13:46;;;;;;;22.60;13.95;;;8.60;58.90;;;;;;5055445;28;20104;-76
2020/12/15 05:16:11;;;;;;;24.00;14.15;;;8.60;58.80;;;;;;5055372;28;20123;-76
2020/12/15 05:18:37;;;;;;;22.55;11.82;;;8.60;58.80;;;;;;5055406;28;20025;-74
2020/12/15 05:21:16;;;;;;;19.45;12.60;;;8.50;58.80;;;;;;5055042;28;20025;-76
2020/12/15 05:23:49;;;;;;;23.27;13.88;;;8.50;58.70;;;;;;5054999;28;20059;-75
2020/12/15 05:26:23;;;;;;;21.00;13.33;;;8.50;58.70;;;;;;5055451;28;20033;-77
2020/12/15 05:29:01;;;;;;;20.17;13.23;;;8.50;58.60;;;;;;5055611;28;20032;-76
2020/12/15 05:31:27;;;;;;;20.23;12.93;;;8.40;58.60;;;;;;5055292;28;20390;-76
2020/12/15 05:33:53;;;;;;;17.73;10.70;;;8.50;58.70;;;;;;5055201;28;20094;-74
2020/12/15 05:36:22;;;;;;;16.77;10.50;;;8.40;58.80;;;;;;5055054;28;20029;-75
2020/12/15 05:39:06;;;;;;;20.02;11.65;;;8.40;58.90;;;;;;5054819;28;20033;-77
2020/12/15 05:41:33;;;;;;;16.85;10.68;;;8.40;58.80;;;;;;5054927;28;20108;-77
2020/12/15 05:44:00;;;;;;;19.80;11.95;;;8.50;58.90;;;;;;5054564;28;20029;-77
2020/12/15 05:46:31;;;;;;;20.73;12.40;;;8.50;58.80;;;;;;5054893;28;20025;-77
2020/12/15 05:49:05;;;;;;;16.65;11.35;;;8.50;58.70;;;;;;5053500;28;20029;-74
2020/12/15 05:51:57;;;;;;;18.67;10.85;;;8.50;58.60;;;;;;5054799;28;20432;-76
2020/12/15 05:54:23;;;;;;;19.55;10.95;;;8.40;58.60;;;;;;5053275;28;20402;-74
2020/12/15 05:57:01;;;;;;;18.75;11.63;;;8.40;58.70;;;;;;5054787;28;20021;-73
2020/12/15 05:59:27;;;;;;;18.58;10.70;;;8.40;58.70;;;;;;5054638;28;20025;-75
2020/12/15 06:01:55;;;;;;;17.45;10.88;;;8.40;58.80;;;;;;5051961;28;20124;-76
2020/12/15 06:04:22;;;;;;;13.25;9.45;;;8.50;58.70;;;;;;5033598;28;20059;-77
2020/12/15 06:06:47;;;;;;;16.77;10.40;;;8.50;58.80;;;;;;5049626;28;20034;-77
2020/12/15 06:09:15;;;;;;;17.67;10.60;;;8.50;58.80;;;;;;5034924;28;20370;-75
2020/12/15 06:11:42;;;;;;;20.65;12.05;;;8.40;58.70;;;;;;5034341;28;20022;-75
2020/12/15 06:14:09;;;;;;;19.27;11.05;;;8.40;58.60;;;;;;5049739;28;20159;-78
2020/12/15 06:16:36;;;;;;;19.67;11.75;;;8.40;58.60;;;;;;5034384;28;20118;-74
2020/12/15 06:19:07;;;;;;;21.02;11.95;;;8.40;58.60;;;;;;5034102;28;20022;-74
2020/12/15 06:21:39;;;;;;;19.88;12.20;;;8.40;58.60;;;;;;5034237;28;20041;-76
2020/12/15 06:24:05;;;;;;;19.15;11.07;;;8.40;58.50;;;;;;5049531;28;20052;-76
2020/12/15 06:26:33;;;;;;;19.08;12.77;;;8.40;58.50;;;;;;5044482;28;20108;-76
2020/12/15 06:29:05;;;;;;;17.27;11.15;;;8.40;58.50;;;;;;5053348;28;20025;-77
2020/12/15 06:31:32;;;;;;;19.15;11.55;;;8.40;58.60;;;;;;5052809;28;20028;-75
2020/12/15 06:34:02;;;;;;;15.02;9.65;;;8.40;58.50;;;;;;5049386;28;20029;-74
2020/12/15 06:36:33;;;;;;;18.98;10.43;;;8.40;58.70;;;;;;5033914;28;20021;-74
2020/12/15 06:39:13;;;;;;;16.80;10.70;;;8.40;58.70;;;;;;5033799;28;20101;-77
2020/12/15 06:41:40;;;;;;;19.88;12.38;;;8.40;58.60;;;;;;5043346;28;20033;-77
2020/12/15 06:44:07;;;;;;;17.08;10.52;;;8.40;58.40;;;;;;5053528;28;20013;-75
2020/12/15 06:46:33;;;;;;;17.60;10.35;;;8.40;58.50;;;;;;5053480;28;20024;-77
2020/12/15 06:49:00;;;;;;;17.05;10.60;;;8.40;58.60;;;;;;5052362;28;20170;-78
2020/12/15 06:51:36;;;;;;;19.10;10.70;;;8.40;58.60;;;;;;5053531;28;20120;-77
2020/12/15 06:54:03;;;;;;;20.42;11.35;;;8.40;58.50;;;;;;5052165;28;20025;-77
2020/12/15 06:56:29;;;;;;;16.75;10.68;;;8.40;58.50;;;;;;5052048;28;20060;-75
2020/12/15 06:59:07;;;;;;;18.33;11.35;;;8.40;58.50;;;;;;5053399;28;20025;-77
2020/12/15 07:01:33;;;;;;;18.60;10.80;;;8.40;58.50;;;;;;5053437;28;20021;-75
2020/12/15 07:04:03;;;;;;;19.10;10.88;;;8.40;58.50;;;;;;5053313;28;20199;-76
2020/12/15 07:06:30;;;;;;;19.38;12.07;;;8.50;58.50;;;;;;5053770;28;20075;-77
2020/12/15 07:09:09;;;;;;;21.30;12.88;;;8.40;58.40;;;;;;5054060;28;20025;-76
2020/12/15 07:11:35;;;;;;;18.42;10.63;;;8.50;58.50;;;;;;5054071;28;20104;-77
2020/12/15 07:14:04;;;;;;;25.40;14.45;;;8.50;58.50;;;;;;5054037;28;20451;-75
2020/12/15 07:16:32;;;;;;;42.00;20.40;;;8.50;58.50;;;;;;5053820;28;20021;-76
2020/12/15 07:18:58;;;;;;;51.45;27.60;;;8.50;58.60;;;;;;5052931;28;20356;-76
2020/12/15 07:21:29;;;;;;;39.88;23.08;;;8.50;58.70;;;;;;5054472;28;20078;-75
2020/12/15 07:23:59;;;;;;;28.10;16.45;;;8.50;58.70;;;;;;5053071;28;20102;-75
2020/12/15 07:26:25;;;;;;;24.20;14.52;;;8.60;58.70;;;;;;5053918;28;20040;-78
2020/12/15 07:28:52;;;;;;;31.52;17.83;;;8.60;58.50;;;;;;5053676;28;20108;-77
2020/12/15 07:31:44;;;;;;;33.97;19.67;;;8.60;58.50;;;;;;5053848;28;20106;-75
2020/12/15 07:34:17;;;;;;;30.77;18.42;;;8.60;58.40;;;;;;5052802;28;20086;-74
2020/12/15 07:36:46;;;;;;;44.35;23.25;;;8.60;58.40;;;;;;5051079;28;20023;-76
2020/12/15 07:39:12;;;;;;;47.08;27.05;;;8.60;58.30;;;;;;5051911;28;20021;-77
2020/12/15 07:41:38;;;;;;;39.00;20.73;;;8.60;58.30;;;;;;5052554;28;20032;-77
2020/12/15 07:44:07;;;;;;;33.40;18.92;;;8.60;58.30;;;;;;5053241;28;20378;-74
2020/12/15 07:46:32;;;;;;;30.80;18.02;;;8.60;58.30;;;;;;5052815;28;20036;-78
2020/12/15 07:49:03;;;;;;;23.27;13.88;;;8.70;58.30;;;;;;5053995;28;20025;-76
2020/12/15 07:51:32;;;;;;;23.30;14.05;;;8.70;58.30;;;;;;5053711;28;20037;-76
2020/12/15 07:53:59;;;;;;;19.83;11.77;;;8.60;58.10;;;;;;5053704;28;20025;-75
2020/12/15 07:56:26;;;;;;;16.15;9.65;;;8.60;58.10;;;;;;5053540;28;20540;-78
2020/12/15 07:58:53;;;;;;;16.77;10.02;;;8.60;58.20;;;;;;5053371;28;20055;-74
2020/12/15 08:01:26;;;;;;;18.65;11.32;;;8.70;58.40;;;;;;5053261;28;20470;-77
2020/12/15 08:04:07;;;;;;;20.40;11.30;;;8.60;58.20;;;;;;5052044;28;20112;-75
2020/12/15 08:06:45;;;;;;;22.60;13.65;;;8.70;58.40;;;;;;5053222;28;20494;-74
2020/12/15 08:09:13;;;;;;;26.50;13.95;;;8.70;58.40;;;;;;5053476;28;20485;-75
2020/12/15 08:11:44;;;;;;;25.50;14.77;;;8.70;58.30;;;;;;5053258;28;20031;-75
2020/12/15 08:14:12;;;;;;;22.45;13.32;;;8.70;58.30;;;;;;5053454;28;20017;-76
2020/12/15 08:16:39;;;;;;;20.17;12.45;;;8.70;58.30;;;;;;5052877;28;20115;-74
2020/12/15 08:19:04;;;;;;;22.27;12.65;;;8.70;58.30;;;;;;5050171;28;20029;-76
2020/12/15 08:21:50;;;;;;;20.42;12.00;;;8.70;58.20;;;;;;5033146;28;20025;-77
2020/12/15 08:24:22;;;;;;;18.92;11.90;;;8.70;58.10;;;;;;5033126;28;20077;-76
2020/12/15 08:26:48;;;;;;;23.27;13.02;;;8.70;58.20;;;;;;5033115;28;20025;-77
2020/12/15 08:29:14;;;;;;;16.73;10.52;;;8.70;58.20;;;;;;5035943;28;20025;-78
2020/12/15 08:31:42;;;;;;;19.42;10.93;;;8.70;58.30;;;;;;5036937;28;20028;-77
2020/12/15 08:34:19;;;;;;;18.23;10.70;;;8.70;58.40;;;;;;5036980;28;20057;-76
2020/12/15 08:36:48;;;;;;;19.70;10.32;;;8.70;58.30;;;;;;5036951;28;20033;-76
2020/12/15 08:39:17;;;;;;;19.00;11.25;;;8.70;58.30;;;;;;5052250;28;20029;-75
2020/12/15 08:42:01;;;;;;;18.67;11.20;;;8.70;58.20;;;;;;5073217;28;20078;-75
2020/12/15 08:44:27;;;;;;;26.42;10.52;;;8.70;58.10;;;;;;5076506;28;20029;-74
2020/12/15 08:46:56;;;;;;;19.80;11.02;;;8.80;58.20;;;;;;5076666;28;20501;-76
2020/12/15 08:49:25;;;;;;;23.30;13.05;;;8.70;58.10;;;;;;5076858;28;20058;-76
2020/12/15 08:51:53;;;;;;;19.08;10.95;;;8.70;58.10;;;;;;5077285;28;20031;-78
2020/12/15 08:54:22;;;;;;;19.23;11.30;;;8.70;57.90;;;;;;5076678;28;20099;-77
2020/12/15 08:56:48;;;;;;;20.27;10.82;;;8.70;57.90;;;;;;5075188;28;20036;-76
2020/12/15 08:59:20;;;;;;;21.20;12.02;;;8.70;57.90;;;;;;5061894;28;20029;-75
2020/12/15 09:01:46;;;;;;;17.52;10.48;;;8.70;57.90;;;;;;5074087;28;20031;-74
2020/12/15 09:04:23;;;;;;;16.23;9.82;;;8.70;58.10;;;;;;5076994;28;20470;-75
2020/12/15 09:06:49;;;;;;;17.85;10.35;;;8.70;58.30;;;;;;5077382;28;20020;-78
2020/12/15 09:09:15;;;;;;;19.23;11.68;;;8.70;58.20;;;;;;5076990;28;20496;-75
2020/12/15 09:11:40;;;;;;;17.20;10.23;;;8.70;57.90;;;;;;5076278;28;20024;-75
2020/12/15 09:14:06;;;;;;;18.80;10.85;;;8.80;58.00;;;;;;5076126;28;20089;-77
2020/12/15 09:16:36;;;;;;;17.45;10.30;;;8.80;58.00;;;;;;5060422;28;20029;-77
2020/12/15 09:19:16;;;;;;;23.60;12.88;;;8.80;58.10;;;;;;5036443;28;20421;-75
2020/12/15 09:22:09;;;;;;;25.55;12.75;;;8.80;58.00;;;;;;5055466;28;20025;-75
2020/12/15 09:24:41;;;;;;;26.02;12.98;;;8.80;57.80;;;;;;5055920;28;20498;-77
2020/12/15 09:27:20;;;;;;;27.10;13.88;;;8.90;57.80;;;;;;5056011;28;20025;-75
2020/12/15 09:29:46;;;;;;;32.30;16.95;;;8.90;57.80;;;;;;5056024;28;20052;-75
2020/12/15 09:32:12;;;;;;;30.70;16.30;;;8.90;57.80;;;;;;5055906;28;20052;-76
2020/12/15 09:34:38;;;;;;;30.15;14.60;;;9.00;57.70;;;;;;5055906;28;20053;-75
2020/12/15 09:37:03;;;;;;;30.70;14.75;;;9.00;57.60;;;;;;5071941;28;20040;-75
2020/12/15 09:39:30;;;;;;;27.75;13.70;;;9.00;57.50;;;;;;5075416;28;20035;-77
2020/12/15 09:41:58;;;;;;;25.52;13.43;;;9.00;57.50;;;;;;5074462;28;20020;-77
2020/12/15 09:44:24;;;;;;;24.65;11.85;;;9.10;57.60;;;;;;5075925;28;20359;-76
2020/12/15 09:46:50;;;;;;;32.55;14.48;;;9.10;57.70;;;;;;5075688;28;20053;-77
2020/12/15 09:49:15;;;;;;;30.27;13.43;;;9.10;57.60;;;;;;5061895;28;20382;-76
2020/12/15 09:51:42;;;;;;;28.55;14.07;;;9.20;58.00;;;;;;5071368;28;20024;-76
2020/12/15 09:54:09;;;;;;;28.63;13.38;;;9.20;57.30;;;;;;5056568;28;20044;-76
2020/12/15 09:56:35;;;;;;;29.48;12.50;;;9.20;57.90;;;;;;5054726;28;20029;-76
2020/12/15 09:59:01;;;;;;;26.30;14.63;;;9.30;57.10;;;;;;5052906;28;20040;-74
2020/12/15 10:01:26;;;;;;;25.00;14.55;;;9.30;57.00;;;;;;5056041;28;20025;-75
2020/12/15 10:03:52;;;;;;;33.65;14.57;;;9.40;56.80;;;;;;5053909;28;20501;-74
2020/12/15 10:06:18;;;;;;;27.65;13.07;;;9.40;56.80;;;;;;5055557;28;20364;-74
2020/12/15 10:08:44;;;;;;;28.42;15.15;;;9.40;57.00;;;;;;5052276;28;20405;-76
2020/12/15 10:11:16;;;;;;;33.25;14.50;;;9.50;57.00;;;;;;5051542;28;20037;-75
2020/12/15 10:13:42;;;;;;;25.85;12.48;;;9.60;56.70;;;;;;5042886;28;20022;-74
2020/12/15 10:16:09;;;;;;;21.15;11.57;;;9.70;56.80;;;;;;5054166;28;20029;-75
2020/12/15 10:18:35;;;;;;;32.92;12.02;;;9.70;56.40;;;;;;5054512;28;20103;-76
2020/12/15 10:21:01;;;;;;;16.25;9.43;;;9.80;56.10;;;;;;5054970;28;20509;-78
2020/12/15 10:23:27;;;;;;;33.03;10.50;;;9.90;55.90;;;;;;5054907;28;20092;-74
2020/12/15 10:25:52;;;;;;;17.35;8.98;;;10.00;56.00;;;;;;5054743;28;20391;-75
2020/12/15 10:28:18;;;;;;;18.73;8.93;;;10.00;55.70;;;;;;5053572;28;20025;-76
2020/12/15 10:30:44;;;;;;;14.02;8.48;;;10.10;55.70;;;;;;5062827;28;20073;-76
2020/12/15 10:33:11;;;;;;;20.33;8.63;;;10.20;55.40;;;;;;5044409;28;20036;-75
2020/12/15 10:35:37;;;;;;;13.18;7.05;;;10.20;55.20;;;;;;5052798;28;20017;-77
2020/12/15 10:38:03;;;;;;;18.50;8.95;;;10.30;55.20;;;;;;5053124;28;20051;-76
2020/12/15 10:40:28;;;;;;;15.68;8.63;;;10.30;55.20;;;;;;5053595;28;20031;-78
2020/12/15 10:42:54;;;;;;;12.85;8.10;;;10.30;54.90;;;;;;5054323;28;20074;-75
2020/12/15 10:45:21;;;;;;;16.27;7.63;;;10.40;54.80;;;;;;5052816;28;20492;-75
2020/12/15 10:47:48;;;;;;;16.42;8.27;;;10.40;54.80;;;;;;5053265;28;20041;-75
2020/12/15 10:50:15;;;;;;;13.55;7.60;;;10.40;54.50;;;;;;5054192;28;20076;-77
2020/12/15 10:52:41;;;;;;;13.00;7.85;;;10.40;54.70;;;;;;5054220;28;20087;-76
2020/12/15 10:55:06;;;;;;;14.05;7.93;;;10.50;54.50;;;;;;5050105;28;20033;-75
2020/12/15 10:57:32;;;;;;;22.25;8.73;;;10.50;54.50;;;;;;5061490;28;20067;-78
2020/12/15 10:59:58;;;;;;;15.95;8.43;;;10.60;54.20;;;;;;5053669;28;20025;-77
2020/12/15 11:02:24;;;;;;;13.82;7.78;;;10.60;54.20;;;;;;5060729;28;20047;-76
2020/12/15 11:04:49;;;;;;;13.98;6.82;;;10.70;54.60;;;;;;5047468;28;20029;-78
2020/12/15 11:07:16;;;;;;;19.42;8.73;;;10.70;54.60;;;;;;5053785;28;20036;-77
2020/12/15 11:09:41;;;;;;;16.52;8.70;;;10.80;54.40;;;;;;5058151;28;20378;-77
2020/12/15 11:12:07;;;;;;;23.20;9.18;;;10.90;54.20;;;;;;5068077;28;20018;-77
2020/12/15 11:14:34;;;;;;;15.20;9.55;;;10.90;53.80;;;;;;5061414;28;20162;-78
2020/12/15 11:17:00;;;;;;;19.30;11.82;;;11.00;53.50;;;;;;5058096;28;20489;-76
2020/12/15 11:19:26;;;;;;;31.70;14.55;;;11.00;53.30;;;;;;5051945;28;20103;-76
2020/12/15 11:21:52;;;;;;;19.15;11.18;;;11.00;53.00;;;;;;5053630;28;20029;-77
2020/12/15 11:24:18;;;;;;;24.30;11.00;;;11.00;53.30;;;;;;5049773;28;20863;-77
2020/12/15 11:26:43;;;;;;;20.23;10.48;;;11.00;53.50;;;;;;5052719;28;20033;-76
2020/12/15 11:29:09;;;;;;;15.18;8.77;;;11.10;53.20;;;;;;5058364;28;20078;-78
2020/12/15 11:31:35;;;;;;;13.82;8.23;;;11.00;53.00;;;;;;5052336;28;20418;-75
2020/12/15 11:34:02;;;;;;;13.27;7.88;;;11.10;53.30;;;;;;5055135;28;20063;-77
2020/12/15 11:36:29;;;;;;;16.77;8.38;;;11.10;53.40;;;;;;5052798;28;20035;-76
2020/12/15 11:38:55;;;;;;;15.13;8.85;;;11.10;53.20;;;;;;5052831;28;20482;-77
2020/12/15 11:41:28;;;;;;;10.70;7.25;;;11.10;52.80;;;;;;5061530;28;20055;-77
2020/12/15 11:43:57;;;;;;;13.68;8.25;;;11.10;52.80;;;;;;5052827;28;20025;-77
2020/12/15 11:46:25;;;;;;;13.43;8.15;;;11.10;52.60;;;;;;5052605;28;20109;-76
2020/12/15 11:48:51;;;;;;;14.63;8.40;;;11.10;52.80;;;;;;5050532;28;20098;-77
2020/12/15 11:51:21;;;;;;;13.27;8.20;;;11.10;52.70;;;;;;5052192;28;20474;-76
2020/12/15 11:53:49;;;;;;;14.93;7.35;;;11.10;52.70;;;;;;5063152;28;20028;-76
2020/12/15 11:56:18;;;;;;;11.43;7.38;;;11.10;52.90;;;;;;5061733;28;20032;-76
2020/12/15 11:58:45;;;;;;;14.63;7.35;;;11.20;52.80;;;;;;5055452;28;20017;-79
2020/12/15 12:01:11;;;;;;;17.30;7.60;;;11.20;52.70;;;;;;5047420;28;20029;-76
2020/12/15 12:03:37;;;;;;;14.65;7.78;;;11.20;52.80;;;;;;5042754;28;20024;-77
2020/12/15 12:06:03;;;;;;;12.45;7.63;;;11.20;52.80;;;;;;5052322;28;20036;-76
2020/12/15 12:08:31;;;;;;;20.58;8.75;;;11.20;52.70;;;;;;5051493;28;20021;-78
2020/12/15 12:10:57;;;;;;;16.65;9.90;;;11.30;52.70;;;;;;5048643;28;20029;-78
2020/12/15 12:13:22;;;;;;;13.10;8.20;;;11.20;52.60;;;;;;5037115;28;20589;-78
2020/12/15 12:15:49;;;;;;;15.40;8.90;;;11.30;52.70;;;;;;5069049;28;20040;-77
2020/12/15 12:18:14;;;;;;;20.40;9.50;;;11.20;52.50;;;;;;5052070;28;20024;-76
2020/12/15 12:20:40;;;;;;;16.75;9.35;;;11.30;52.30;;;;;;5050986;28;20013;-76
2020/12/15 12:23:06;;;;;;;14.80;8.45;;;11.20;52.10;;;;;;5050761;28;20111;-75
2020/12/15 12:25:35;;;;;;;18.48;10.93;;;11.20;52.30;;;;;;5048222;28;20049;-77
2020/12/15 12:28:04;;;;;;;25.65;14.68;;;11.10;52.10;;;;;;5046810;28;20044;-79
2020/12/15 12:30:30;;;;;;;25.83;16.73;;;11.10;51.80;;;;;;5052989;28;20029;-75
2020/12/15 12:32:56;;;;;;;28.27;14.68;;;11.00;51.60;;;;;;5051570;28;20116;-76
2020/12/15 12:35:23;;;;;;;21.70;12.18;;;10.90;52.00;;;;;;5051843;28;20451;-77
2020/12/15 12:37:49;;;;;;;21.23;12.15;;;10.80;52.20;;;;;;5054044;28;20037;-76
2020/12/15 12:40:15;;;;;;;24.52;12.40;;;10.80;52.20;;;;;;5054512;28;20033;-77